createdAt,value
2022-10-19T00:01:18.431Z,69.84
2022-10-19T00:06:28.148Z,69.51
2022-10-19T00:08:58.634Z,68.37
2022-10-19T00:11:26.973Z,68.56
2022-10-19T00:13:55.700Z,68.59
2022-10-19T00:16:24.521Z,68.75
2022-10-19T00:18:51.538Z,68.67
2022-10-19T00:21:20.019Z,68.86
2022-10-19T00:23:47.863Z,68.87
2022-10-19T00:26:14.894Z,69.19
2022-10-19T00:28:42.896Z,69.12
2022-10-19T00:31:13.294Z,68.97
2022-10-19T00:33:41.292Z,69.20
2022-10-19T00:36:20.633Z,68.59
2022-10-19T00:38:48.309Z,68.71
2022-10-19T00:41:16.963Z,68.37
2022-10-19T00:43:57.093Z,68.83
2022-10-19T00:46:25.856Z,69.05
2022-10-19T00:48:57.266Z,69.39
2022-10-19T00:51:26.429Z,69.49
2022-10-19T00:53:53.760Z,69.98
2022-10-19T00:56:20.937Z,69.57
2022-10-19T00:58:48.146Z,69.77
2022-10-19T01:01:19.348Z,69.92
2022-10-19T01:03:46.877Z,69.96
2022-10-19T01:06:18.338Z,70.45
2022-10-19T01:08:45.547Z,70.49
2022-10-19T01:11:30.648Z,70.46
2022-10-19T01:14:06.821Z,70.43
2022-10-19T01:17:06.674Z,70.50
2022-10-19T01:20:19.473Z,70.47
2022-10-19T01:23:13.650Z,70.85
2022-10-19T01:25:59.041Z,70.93
2022-10-19T01:28:50.711Z,70.67
2022-10-19T01:31:48.666Z,70.91
2022-10-19T01:34:37.591Z,70.36
2022-10-19T01:37:14.573Z,70.13
2022-10-19T01:40:19.510Z,70.20
2022-10-19T01:43:04.520Z,69.75
2022-10-19T01:45:39.080Z,69.85
2022-10-19T01:48:14.409Z,69.95
2022-10-19T01:50:44.434Z,70.31
2022-10-19T01:53:12.978Z,70.51
2022-10-19T01:55:43.302Z,70.19
2022-10-19T01:58:16.244Z,70.71
2022-10-19T02:00:47.180Z,70.43
2022-10-19T02:03:15.876Z,70.71
2022-10-19T02:05:44.827Z,70.19
2022-10-19T02:08:17.394Z,71.13
2022-10-19T02:10:45.986Z,70.70
2022-10-19T02:13:15.046Z,70.80
2022-10-19T02:15:46.581Z,70.27
2022-10-19T02:18:17.814Z,70.08
2022-10-19T02:20:45.469Z,70.60
2022-10-19T02:23:17.087Z,70.06
2022-10-19T02:25:44.186Z,69.97
2022-10-19T02:28:11.510Z,69.69
2022-10-19T02:30:38.631Z,69.70
2022-10-19T02:33:05.783Z,69.66
2022-10-19T02:35:33.486Z,69.45
2022-10-19T02:38:03.174Z,69.73
2022-10-19T02:40:34.675Z,69.63
2022-10-19T02:43:08.013Z,69.35
2022-10-19T02:45:45.631Z,69.56
2022-10-19T02:48:20.770Z,69.54
2022-10-19T02:50:52.154Z,69.52
2022-10-19T02:53:19.286Z,69.51
2022-10-19T02:55:49.082Z,68.94
2022-10-19T02:58:16.496Z,68.78
2022-10-19T03:00:43.574Z,68.66
2022-10-19T03:03:11.057Z,68.77
2022-10-19T03:05:38.117Z,68.71
2022-10-19T03:08:05.350Z,68.66
2022-10-19T03:10:32.420Z,68.45
2022-10-19T03:12:59.417Z,68.35
2022-10-19T03:15:29.202Z,68.35
2022-10-19T03:17:56.785Z,68.80
2022-10-19T03:20:24.315Z,68.52
2022-10-19T03:25:23.797Z,68.75
2022-10-19T03:27:53.321Z,68.51
2022-10-19T03:30:20.406Z,67.83
2022-10-19T03:32:47.443Z,67.60
2022-10-19T03:35:14.523Z,67.36
2022-10-19T03:37:41.427Z,66.98
2022-10-19T03:40:08.853Z,66.46
2022-10-19T03:42:36.045Z,66.23
2022-10-19T03:45:04.486Z,65.52
2022-10-19T03:47:31.664Z,65.46
2022-10-19T03:49:58.821Z,65.64
2022-10-19T03:52:25.859Z,65.66
2022-10-19T03:54:52.789Z,65.42
2022-10-19T03:57:19.789Z,65.68
2022-10-19T03:59:46.739Z,65.83
2022-10-19T04:02:13.732Z,65.88
2022-10-19T04:04:40.676Z,65.73
2022-10-19T04:07:07.681Z,65.82
2022-10-19T04:09:34.590Z,66.12
2022-10-19T04:12:01.610Z,66.00
2022-10-19T04:14:32.407Z,65.65
2022-10-19T04:17:03.105Z,65.95
2022-10-19T04:19:30.745Z,66.16
2022-10-19T04:21:58.217Z,66.19
2022-10-19T04:24:25.343Z,66.49
2022-10-19T04:26:54.885Z,66.42
2022-10-19T04:29:26.471Z,66.54
2022-10-19T04:31:56.753Z,67.25
2022-10-19T04:34:24.379Z,67.55
2022-10-19T04:36:52.769Z,67.48
2022-10-19T04:39:19.756Z,67.51
2022-10-19T04:41:46.658Z,67.78
2022-10-19T04:44:13.779Z,67.79
2022-10-19T04:46:40.787Z,68.12
2022-10-19T04:49:07.924Z,67.99
2022-10-19T04:51:35.194Z,68.00
2022-10-19T04:54:03.816Z,68.18
2022-10-19T04:56:32.562Z,68.59
2022-10-19T04:59:00.685Z,68.51
2022-10-19T05:01:29.707Z,68.79
2022-10-19T05:03:59.643Z,68.68
2022-10-19T05:06:27.132Z,68.29
2022-10-19T05:08:54.411Z,68.31
2022-10-19T05:11:21.670Z,67.94
2022-10-19T05:13:49.163Z,67.82
2022-10-19T05:16:19.202Z,67.55
2022-10-19T05:18:56.846Z,67.60
2022-10-19T05:21:23.878Z,67.41
2022-10-19T05:23:55.414Z,66.75
2022-10-19T05:26:24.945Z,66.81
2022-10-19T05:28:59.543Z,65.43
2022-10-19T05:31:29.677Z,63.84
2022-10-19T05:33:57.424Z,63.05
2022-10-19T05:36:45.115Z,62.34
2022-10-19T05:39:17.551Z,61.39
2022-10-19T05:41:45.561Z,60.00
2022-10-19T05:44:18.162Z,57.15
2022-10-19T05:46:45.176Z,56.26
2022-10-19T05:49:13.206Z,54.17
2022-10-19T05:51:41.456Z,52.38
2022-10-19T05:54:10.096Z,52.05
2022-10-19T05:56:37.320Z,51.21
2022-10-19T05:59:06.677Z,47.53
2022-10-19T06:01:35.337Z,48.19
2022-10-19T06:04:03.713Z,48.53
2022-10-19T06:06:31.267Z,47.84
2022-10-19T06:08:59.217Z,46.22
2022-10-19T06:11:39.228Z,45.29
2022-10-19T06:14:13.303Z,44.69
2022-10-19T06:16:40.430Z,43.88
2022-10-19T06:19:07.685Z,44.27
2022-10-19T06:21:35.035Z,44.60
2022-10-19T06:24:04.416Z,45.79
2022-10-19T06:26:33.249Z,45.70
2022-10-19T06:29:01.196Z,44.17
2022-10-19T06:31:36.516Z,42.85
2022-10-19T06:34:04.220Z,42.96
2022-10-19T06:36:32.226Z,43.30
2022-10-19T06:39:01.788Z,41.74
2022-10-19T06:41:30.533Z,42.31
2022-10-19T06:44:02.464Z,42.56
2022-10-19T06:46:29.549Z,42.91
2022-10-19T06:48:58.782Z,42.43
2022-10-19T06:51:27.428Z,43.05
2022-10-19T06:53:57.226Z,42.10
2022-10-19T06:56:26.405Z,42.82
2022-10-19T06:58:53.672Z,42.39
2022-10-19T07:01:20.932Z,43.09
2022-10-19T07:03:47.910Z,43.72
2022-10-19T07:06:15.022Z,43.35
2022-10-19T07:08:43.556Z,43.30
2022-10-19T07:11:13.274Z,42.00
2022-10-19T07:13:40.347Z,41.80
2022-10-19T07:16:15.861Z,41.66
2022-10-19T07:18:47.273Z,41.66
2022-10-19T07:21:16.262Z,42.72
2022-10-19T07:23:47.520Z,43.46
2022-10-19T07:26:17.882Z,44.02
2022-10-19T07:28:47.435Z,43.71
2022-10-19T07:31:18.051Z,44.25
2022-10-19T07:33:45.378Z,44.53
2022-10-19T07:36:13.926Z,45.96
2022-10-19T07:38:41.371Z,46.45
2022-10-19T07:41:14.887Z,46.63
2022-10-19T07:43:43.946Z,46.45
2022-10-19T07:46:16.816Z,46.66
2022-10-19T07:48:45.390Z,46.20
2022-10-19T07:51:14.668Z,45.35
2022-10-19T07:53:43.199Z,46.21
2022-10-19T07:56:25.422Z,45.31
2022-10-19T07:58:54.200Z,45.15
2022-10-19T08:01:26.540Z,45.70
2022-10-19T08:06:52.582Z,45.81
2022-10-19T08:09:47.349Z,45.64
2022-10-19T08:12:07.121Z,45.26
2022-10-19T08:14:34.643Z,46.84
2022-10-19T08:17:01.882Z,46.18
2022-10-19T08:19:29.046Z,45.87
2022-10-19T08:21:56.021Z,46.93
2022-10-19T08:24:22.930Z,45.26
2022-10-19T08:26:51.461Z,45.57
2022-10-19T08:29:20.658Z,45.98
2022-10-19T08:31:49.801Z,45.45
2022-10-19T08:34:17.405Z,44.45
2022-10-19T08:36:44.565Z,47.62
2022-10-19T08:39:15.022Z,46.55
2022-10-19T08:42:03.390Z,46.21
2022-10-19T08:44:57.514Z,46.89
2022-10-19T08:47:42.534Z,47.77
2022-10-19T08:50:36.494Z,48.27
2022-10-19T08:53:24.402Z,47.92
2022-10-19T08:56:22.110Z,47.72
2022-10-19T08:59:11.357Z,47.59
2022-10-19T09:01:53.456Z,46.09
2022-10-19T09:04:30.844Z,46.38
2022-10-19T09:07:21.054Z,45.71
2022-10-19T09:10:29.787Z,44.46
2022-10-19T09:12:59.367Z,45.18
2022-10-19T09:15:40.101Z,44.73
2022-10-19T09:18:21.166Z,44.53
2022-10-19T09:21:19.742Z,44.67
2022-10-19T09:24:11.241Z,43.53
2022-10-19T09:26:53.443Z,43.84
2022-10-19T09:29:44.580Z,43.37
2022-10-19T09:32:38.962Z,43.30
2022-10-19T09:35:08.637Z,43.73
2022-10-19T09:37:45.400Z,44.03
2022-10-19T09:40:25.282Z,43.98
2022-10-19T09:42:57.153Z,45.13
2022-10-19T09:45:31.913Z,43.17
2022-10-19T09:48:07.059Z,44.78
2022-10-19T09:50:44.467Z,45.16
2022-10-19T09:53:23.014Z,46.14
2022-10-19T09:56:04.336Z,43.72
2022-10-19T09:58:33.104Z,44.09
2022-10-19T10:01:01.931Z,45.05
2022-10-19T10:03:33.235Z,44.54
2022-10-19T10:06:07.459Z,44.19
2022-10-19T10:08:39.071Z,44.20
2022-10-19T10:11:12.993Z,45.79
2022-10-19T10:13:48.072Z,47.06
2022-10-19T10:16:17.488Z,48.48
2022-10-19T10:18:54.865Z,47.36
2022-10-19T10:21:27.660Z,44.95
2022-10-19T10:24:11.231Z,45.74
2022-10-19T10:26:47.451Z,47.68
2022-10-19T10:29:26.237Z,47.67
2022-10-19T10:32:00.736Z,51.05
2022-10-19T10:34:49.550Z,52.03
2022-10-19T10:37:43.066Z,51.69
2022-10-19T10:40:31.229Z,51.86
2022-10-19T10:43:05.822Z,51.62
2022-10-19T10:45:39.080Z,51.15
2022-10-19T10:48:21.587Z,51.21
2022-10-19T10:50:48.816Z,52.89
2022-10-19T10:53:39.866Z,53.99
2022-10-19T10:56:24.279Z,52.55
2022-10-19T10:59:19.920Z,52.53
2022-10-19T11:02:19.218Z,53.03
2022-10-19T11:04:53.917Z,54.46
2022-10-19T11:07:24.674Z,54.78
2022-10-19T11:10:10.062Z,53.94
2022-10-19T11:12:46.487Z,53.76
2022-10-19T11:15:22.901Z,55.08
2022-10-19T11:17:59.982Z,54.03
2022-10-19T11:20:30.972Z,54.73
2022-10-19T11:23:13.865Z,54.09
2022-10-19T11:25:49.851Z,53.14
2022-10-19T11:28:29.144Z,52.71
2022-10-19T11:31:19.102Z,51.90
2022-10-19T11:34:02.648Z,52.37
2022-10-19T11:36:32.772Z,51.91
2022-10-19T11:39:44.410Z,52.07
2022-10-19T11:42:26.467Z,53.97
2022-10-19T11:44:53.387Z,53.36
2022-10-19T11:47:36.911Z,54.03
2022-10-19T11:50:13.151Z,53.73
2022-10-19T11:52:55.175Z,52.96
2022-10-19T11:55:40.782Z,53.98
2022-10-19T11:58:37.342Z,53.29
2022-10-19T12:01:13.598Z,52.63
2022-10-19T12:03:51.132Z,54.11
2022-10-19T12:06:29.417Z,54.37
2022-10-19T12:09:01.612Z,52.03
2022-10-19T12:11:45.205Z,53.43
2022-10-19T12:14:24.705Z,54.67
2022-10-19T12:16:57.267Z,53.87
2022-10-19T12:19:40.960Z,55.39
2022-10-19T12:22:16.278Z,52.52
2022-10-19T12:24:43.606Z,54.88
2022-10-19T12:27:17.047Z,54.66
2022-10-19T12:29:48.668Z,55.19
2022-10-19T12:32:20.042Z,53.71
2022-10-19T12:35:12.704Z,54.72
2022-10-19T12:37:56.007Z,55.58
2022-10-19T12:40:33.089Z,56.72
2022-10-19T12:43:38.371Z,56.28
2022-10-19T12:46:40.245Z,56.35
2022-10-19T12:49:31.241Z,55.71
2022-10-19T12:52:00.259Z,55.62
2022-10-19T12:54:30.051Z,56.59
2022-10-19T12:56:58.946Z,57.73
2022-10-19T12:59:36.248Z,57.71
2022-10-19T13:02:06.894Z,58.26
2022-10-19T13:04:37.874Z,57.53
2022-10-19T13:07:11.014Z,58.89
2022-10-19T13:09:44.186Z,57.73
2022-10-19T13:12:17.669Z,57.96
2022-10-19T13:15:03.881Z,57.89
2022-10-19T13:17:54.689Z,57.64
2022-10-19T13:20:21.600Z,57.29
2022-10-19T13:22:59.444Z,57.40
2022-10-19T13:25:28.483Z,58.96
2022-10-19T13:27:55.780Z,58.05
2022-10-19T13:30:38.003Z,58.71
2022-10-19T13:33:28.595Z,60.00
2022-10-19T13:36:04.192Z,59.68
2022-10-19T13:41:17.172Z,61.38
2022-10-19T13:43:44.166Z,61.71
2022-10-19T13:46:15.825Z,62.82
2022-10-19T13:49:05.515Z,63.32
2022-10-19T13:51:34.942Z,63.36
2022-10-19T13:56:59.919Z,66.05
2022-10-19T14:00:04.194Z,65.66
2022-10-19T14:03:09.361Z,65.91
2022-10-19T14:06:10.345Z,65.21
2022-10-19T14:08:59.794Z,66.01
2022-10-19T14:11:37.890Z,65.87
2022-10-19T14:14:16.671Z,66.18
2022-10-19T14:17:04.062Z,66.03
2022-10-19T14:19:50.416Z,66.10
2022-10-19T14:22:40.392Z,66.35
2022-10-19T14:25:37.697Z,66.65
2022-10-19T14:28:18.658Z,67.59
2022-10-19T14:34:02.682Z,66.88
2022-10-19T14:36:44.308Z,67.40
2022-10-19T14:39:34.025Z,67.84
2022-10-19T14:42:15.988Z,67.90
2022-10-19T14:44:45.739Z,68.51
2022-10-19T14:47:31.988Z,67.75
2022-10-19T14:50:04.880Z,67.92
2022-10-19T14:52:42.945Z,68.29
2022-10-19T14:58:17.645Z,68.78
2022-10-19T15:00:52.201Z,68.35
2022-10-19T15:03:35.059Z,68.65
2022-10-19T15:08:58.909Z,68.96
2022-10-19T15:11:33.261Z,69.31
2022-10-19T15:14:26.954Z,69.49
2022-10-19T15:17:04.769Z,69.44
2022-10-19T15:19:45.195Z,69.99
2022-10-19T15:25:08.498Z,70.77
2022-10-19T15:27:42.452Z,70.85
2022-10-19T15:30:20.669Z,70.84
2022-10-19T15:33:01.973Z,71.36
2022-10-19T15:35:39.997Z,70.90
2022-10-19T15:38:23.992Z,71.45
2022-10-19T15:40:59.369Z,71.12
2022-10-19T15:46:30.034Z,72.48
2022-10-19T15:49:20.323Z,72.16
2022-10-19T15:51:58.352Z,72.46
2022-10-19T15:54:30.180Z,72.24
2022-10-19T15:57:02.015Z,72.18
2022-10-19T15:59:36.232Z,72.29
2022-10-19T16:02:17.798Z,72.76
2022-10-19T16:04:54.178Z,73.14
2022-10-19T16:07:30.088Z,72.98
2022-10-19T16:09:59.071Z,73.06
2022-10-19T16:12:31.494Z,73.25
2022-10-19T16:15:05.053Z,73.67
2022-10-19T16:17:34.972Z,73.39
2022-10-19T16:20:12.731Z,73.50
2022-10-19T16:22:43.948Z,73.10
2022-10-19T16:25:13.065Z,73.50
2022-10-19T16:27:45.627Z,73.56
2022-10-19T16:30:17.600Z,73.89
2022-10-19T16:32:57.603Z,74.08
2022-10-19T16:35:26.964Z,74.32
2022-10-19T16:37:55.940Z,74.79
2022-10-19T16:40:26.102Z,74.97
2022-10-19T16:43:01.154Z,74.58
2022-10-19T16:45:30.200Z,74.78
2022-10-19T16:47:59.538Z,75.13
2022-10-19T16:50:31.032Z,75.16
2022-10-19T16:53:14.707Z,75.29
2022-10-19T16:55:45.260Z,75.36
2022-10-19T16:58:18.746Z,75.51
2022-10-19T17:00:50.660Z,75.51
2022-10-19T17:03:21.991Z,75.64
2022-10-19T17:05:50.557Z,75.96
2022-10-19T17:08:21.607Z,76.22
2022-10-19T17:10:50.158Z,76.42
2022-10-19T17:13:23.542Z,76.43
2022-10-19T17:15:55.007Z,76.58
2022-10-19T17:18:29.221Z,76.44
2022-10-19T17:21:07.386Z,76.46
2022-10-19T17:23:38.192Z,76.46
2022-10-19T17:26:07.280Z,76.71
2022-10-19T17:28:36.925Z,76.91
2022-10-19T17:31:24.551Z,76.88
2022-10-19T17:33:53.555Z,76.76
2022-10-19T17:36:30.208Z,77.05
2022-10-19T17:39:04.649Z,76.99
2022-10-19T17:41:36.676Z,77.29
2022-10-19T17:44:05.961Z,77.23
2022-10-19T17:46:36.757Z,77.58
2022-10-19T17:49:07.477Z,77.29
2022-10-19T17:51:38.390Z,77.33
2022-10-19T17:54:12.403Z,77.37
2022-10-19T17:56:50.168Z,77.26
2022-10-19T17:59:29.950Z,76.85
2022-10-19T18:02:04.017Z,76.88
2022-10-19T18:07:05.102Z,76.28
2022-10-19T18:09:34.108Z,75.11
2022-10-19T18:12:07.134Z,74.54
2022-10-19T18:14:36.247Z,74.38
2022-10-19T18:17:04.967Z,74.38
2022-10-19T18:19:33.969Z,74.32
2022-10-19T18:22:03.097Z,73.98
2022-10-19T18:24:31.629Z,73.50
2022-10-19T18:27:09.320Z,73.70
2022-10-19T18:29:38.418Z,73.70
2022-10-19T18:34:35.599Z,73.66
2022-10-19T18:37:04.242Z,73.63
2022-10-19T18:39:38.879Z,73.81
2022-10-19T18:42:10.193Z,73.77
2022-10-19T18:44:40.782Z,73.68
2022-10-19T18:47:09.309Z,73.89
2022-10-19T18:49:41.372Z,73.82
2022-10-19T18:52:12.330Z,73.86
2022-10-19T18:54:44.171Z,74.18
2022-10-19T18:57:13.266Z,73.97
2022-10-19T18:59:43.965Z,74.09
2022-10-19T19:02:22.185Z,73.99
2022-10-19T19:04:52.066Z,73.93
2022-10-19T19:07:21.498Z,73.80
2022-10-19T19:09:51.864Z,73.80
2022-10-19T19:12:20.760Z,73.74
2022-10-19T19:14:50.598Z,73.28
2022-10-19T19:17:18.357Z,72.86
2022-10-19T19:19:46.022Z,72.34
2022-10-19T19:22:13.252Z,71.04
2022-10-19T19:24:42.236Z,70.95
2022-10-19T19:27:09.748Z,70.87
2022-10-19T19:29:36.823Z,70.77
2022-10-19T19:32:04.727Z,70.75
2022-10-19T19:34:32.045Z,70.22
2022-10-19T19:36:59.586Z,69.56
2022-10-19T19:39:26.744Z,69.91
2022-10-19T19:41:54.005Z,69.58
2022-10-19T19:44:21.549Z,69.65
2022-10-19T19:46:49.077Z,69.27
2022-10-19T19:49:16.447Z,69.41
2022-10-19T19:51:43.766Z,69.16
2022-10-19T19:54:11.788Z,69.32
2022-10-19T19:56:40.248Z,68.90
2022-10-19T19:59:08.418Z,68.95
2022-10-19T20:01:37.556Z,68.53
2022-10-19T20:04:05.255Z,68.45
2022-10-19T20:06:35.091Z,68.43
2022-10-19T20:09:03.016Z,68.70
2022-10-19T20:11:30.826Z,68.41
2022-10-19T20:13:59.110Z,68.59
2022-10-19T20:16:29.588Z,68.39
2022-10-19T20:19:08.565Z,68.23
2022-10-19T20:21:36.523Z,68.54
2022-10-19T20:24:04.491Z,68.54
2022-10-19T20:26:32.664Z,68.23
2022-10-19T20:29:02.273Z,68.37
2022-10-19T20:31:31.986Z,68.37
2022-10-19T20:33:59.892Z,68.63
2022-10-19T20:36:27.822Z,68.64
2022-10-19T20:38:57.325Z,68.81
2022-10-19T20:41:27.448Z,68.96
2022-10-19T20:43:55.824Z,69.53
2022-10-19T20:46:25.735Z,69.32
2022-10-19T20:48:55.341Z,69.63
2022-10-19T20:51:37.119Z,69.84
2022-10-19T20:54:08.074Z,70.04
2022-10-19T20:56:38.195Z,70.22
2022-10-19T20:59:09.342Z,70.50
2022-10-19T21:01:39.032Z,70.73
2022-10-19T21:04:09.367Z,70.70
2022-10-19T21:06:48.598Z,70.75
2022-10-19T21:09:22.099Z,70.66
2022-10-19T21:11:51.912Z,70.97
2022-10-19T21:14:26.917Z,70.81
2022-10-19T21:16:59.008Z,70.76
2022-10-19T21:19:29.343Z,71.18
2022-10-19T21:22:02.627Z,71.00
2022-10-19T21:24:33.975Z,71.28
2022-10-19T21:27:07.063Z,71.37
2022-10-19T21:29:34.935Z,71.22
2022-10-19T21:32:02.795Z,71.24
2022-10-19T21:34:31.991Z,71.17
2022-10-19T21:37:00.228Z,71.35
2022-10-19T21:39:27.826Z,71.52
2022-10-19T21:41:55.694Z,71.16
2022-10-19T21:44:23.659Z,71.41
2022-10-19T21:46:51.738Z,71.28
2022-10-19T21:49:20.728Z,71.21
2022-10-19T21:51:54.226Z,71.44
2022-10-19T21:54:25.447Z,71.47
2022-10-19T21:56:55.714Z,71.40
2022-10-19T21:59:24.274Z,71.45
2022-10-19T22:01:52.283Z,71.73
2022-10-19T22:04:19.998Z,71.30
2022-10-19T22:06:48.180Z,71.40
2022-10-19T22:09:26.491Z,71.70
2022-10-19T22:11:55.995Z,72.01
2022-10-19T22:14:25.267Z,71.79
2022-10-19T22:16:53.164Z,71.94
2022-10-19T22:19:21.029Z,72.08
2022-10-19T22:21:48.796Z,71.98
2022-10-19T22:24:16.513Z,72.26
2022-10-19T22:26:47.602Z,71.86
2022-10-19T22:29:15.177Z,71.58
2022-10-19T22:31:42.494Z,71.82
2022-10-19T22:34:15.451Z,71.90
2022-10-19T22:36:43.189Z,71.83
2022-10-19T22:39:12.353Z,71.87
2022-10-19T22:42:36.022Z,71.79
2022-10-19T22:46:22.666Z,71.68
2022-10-19T22:50:04.704Z,71.72
2022-10-19T22:53:00.111Z,72.42
2022-10-19T22:55:27.287Z,72.36
2022-10-19T22:57:54.541Z,72.11
2022-10-19T23:00:21.669Z,72.44
2022-10-19T23:02:48.913Z,72.05
2022-10-19T23:05:16.058Z,71.95
2022-10-19T23:07:43.247Z,72.07
2022-10-19T23:10:10.721Z,71.80
2022-10-19T23:12:37.995Z,71.81
2022-10-19T23:15:05.665Z,71.54
2022-10-19T23:17:33.022Z,71.33
2022-10-19T23:20:00.403Z,71.50
2022-10-19T23:22:27.698Z,71.78
2022-10-19T23:24:54.952Z,71.69
2022-10-19T23:27:22.166Z,71.61
2022-10-19T23:29:49.405Z,71.35
2022-10-19T23:32:16.587Z,71.53
2022-10-19T23:34:47.456Z,71.51
2022-10-19T23:37:15.691Z,71.93
2022-10-19T23:39:42.826Z,71.29
2022-10-19T23:42:10.061Z,70.50
2022-10-19T23:44:37.109Z,70.45
2022-10-19T23:47:04.341Z,70.46
2022-10-19T23:49:31.385Z,69.86
2022-10-19T23:51:58.519Z,69.95
2022-10-19T23:54:25.708Z,70.51
2022-10-19T23:56:52.921Z,70.56
2022-10-19T23:59:20.076Z,70.75
